createdAt,value
2017-10-15T00:00:06.109Z,948.59
2017-10-15T00:01:06.413Z,948.62
2017-10-15T00:02:06.112Z,948.60
2017-10-15T00:03:06.114Z,948.62
2017-10-15T00:04:06.117Z,948.63
2017-10-15T00:05:06.117Z,948.60
2017-10-15T00:06:06.119Z,948.60
2017-10-15T00:07:06.120Z,948.62
2017-10-15T00:08:06.123Z,948.64
2017-10-15T00:09:06.124Z,948.61
2017-10-15T00:10:06.125Z,948.62
2017-10-15T00:11:06.128Z,948.58
2017-10-15T00:12:06.128Z,948.66
2017-10-15T00:13:06.130Z,948.65
2017-10-15T00:14:06.132Z,948.67
2017-10-15T00:15:06.134Z,948.67
2017-10-15T00:16:06.135Z,948.65
2017-10-15T00:17:06.136Z,948.68
2017-10-15T00:18:06.139Z,948.68
2017-10-15T00:19:06.139Z,948.68
2017-10-15T00:20:06.146Z,948.66
2017-10-15T00:21:06.144Z,948.65
2017-10-15T00:22:06.146Z,948.67
2017-10-15T00:23:06.145Z,948.67
2017-10-15T00:24:06.147Z,948.66
2017-10-15T00:25:06.149Z,948.71
2017-10-15T00:26:06.150Z,948.68
2017-10-15T00:27:06.153Z,948.70
2017-10-15T00:28:06.154Z,948.66
2017-10-15T00:29:06.156Z,948.65
2017-10-15T00:30:06.163Z,948.66
2017-10-15T00:31:06.158Z,948.63
2017-10-15T00:32:06.160Z,948.64
2017-10-15T00:33:06.162Z,948.64
2017-10-15T00:34:06.163Z,948.63
2017-10-15T00:35:06.165Z,948.57
2017-10-15T00:36:06.166Z,948.61
2017-10-15T00:37:06.173Z,948.52
2017-10-15T00:38:06.171Z,948.54
2017-10-15T00:39:06.171Z,948.54
2017-10-15T00:40:06.174Z,948.58
2017-10-15T00:41:06.174Z,948.58
2017-10-15T00:42:06.177Z,948.57
2017-10-15T00:43:06.176Z,948.56
2017-10-15T00:44:06.180Z,948.57
2017-10-15T00:45:06.181Z,948.59
2017-10-15T00:46:06.182Z,948.61
2017-10-15T00:47:06.182Z,948.59
2017-10-15T00:48:06.184Z,948.57
2017-10-15T00:49:06.187Z,948.59
2017-10-15T00:50:06.188Z,948.57
2017-10-15T00:51:06.188Z,948.58
2017-10-15T00:52:06.189Z,948.58
2017-10-15T00:53:06.191Z,948.52
2017-10-15T00:54:06.193Z,948.50
2017-10-15T00:55:06.195Z,948.51
2017-10-15T00:56:06.196Z,948.50
2017-10-15T00:57:06.198Z,948.52
2017-10-15T00:58:06.198Z,948.54
2017-10-15T00:59:06.199Z,948.53
2017-10-15T01:00:06.202Z,948.53
2017-10-15T01:01:06.212Z,948.53
2017-10-15T01:02:06.207Z,948.52
2017-10-15T01:03:06.207Z,948.52
2017-10-15T01:04:06.207Z,948.51
2017-10-15T01:05:06.209Z,948.50
2017-10-15T01:06:06.209Z,948.49
2017-10-15T01:07:06.211Z,948.52
2017-10-15T01:08:06.215Z,948.51
2017-10-15T01:09:06.215Z,948.49
2017-10-15T01:10:06.215Z,948.48
2017-10-15T01:11:06.216Z,948.47
2017-10-15T01:12:06.217Z,948.51
2017-10-15T01:13:06.220Z,948.50
2017-10-15T01:14:06.220Z,948.50
2017-10-15T01:15:06.221Z,948.46
2017-10-15T01:16:06.223Z,948.44
2017-10-15T01:17:06.224Z,948.45
2017-10-15T01:18:06.225Z,948.48
2017-10-15T01:19:06.226Z,948.46
2017-10-15T01:20:06.230Z,948.43
2017-10-15T01:21:06.229Z,948.47
2017-10-15T01:22:06.231Z,948.44
2017-10-15T01:23:06.232Z,948.48
2017-10-15T01:24:06.233Z,948.42
2017-10-15T01:25:06.235Z,948.46
2017-10-15T01:26:06.236Z,948.41
2017-10-15T01:27:06.242Z,948.41
2017-10-15T01:28:06.238Z,948.40
2017-10-15T01:29:06.241Z,948.39
2017-10-15T01:30:06.240Z,948.40
2017-10-15T01:31:06.242Z,948.33
2017-10-15T01:32:06.243Z,948.35
2017-10-15T01:33:06.245Z,948.36
2017-10-15T01:34:06.246Z,948.37
2017-10-15T01:35:06.248Z,948.35
2017-10-15T01:36:06.249Z,948.37
2017-10-15T01:37:06.249Z,948.35
2017-10-15T01:38:06.250Z,948.35
2017-10-15T01:39:06.253Z,948.34
2017-10-15T01:40:06.253Z,948.36
2017-10-15T01:41:06.256Z,948.37
2017-10-15T01:42:06.254Z,948.37
2017-10-15T01:43:06.257Z,948.35
2017-10-15T01:44:06.257Z,948.35
2017-10-15T01:45:06.265Z,948.33
2017-10-15T01:46:06.260Z,948.34
2017-10-15T01:47:06.261Z,948.31
2017-10-15T01:48:06.263Z,948.32
2017-10-15T01:49:06.264Z,948.30
2017-10-15T01:50:06.264Z,948.32
2017-10-15T01:51:06.264Z,948.35
2017-10-15T01:52:06.268Z,948.34
2017-10-15T01:53:06.267Z,948.31
2017-10-15T01:54:06.269Z,948.29
2017-10-15T01:55:06.277Z,948.29
2017-10-15T01:56:06.271Z,948.25
2017-10-15T01:57:06.273Z,948.29
2017-10-15T01:58:06.272Z,948.25
2017-10-15T01:59:06.275Z,948.27
2017-10-15T02:00:06.275Z,948.26
2017-10-15T02:01:06.277Z,948.26
2017-10-15T02:02:06.277Z,948.26
2017-10-15T02:03:06.278Z,948.26
2017-10-15T02:04:06.283Z,948.24
2017-10-15T02:05:06.282Z,948.24
2017-10-15T02:06:06.283Z,948.23
2017-10-15T02:07:06.283Z,948.21
2017-10-15T02:08:06.284Z,948.18
2017-10-15T02:09:06.285Z,948.11
2017-10-15T02:10:06.287Z,948.19
2017-10-15T02:11:06.288Z,948.13
2017-10-15T02:12:06.290Z,948.16
2017-10-15T02:13:06.291Z,948.16
2017-10-15T02:14:06.295Z,948.21
2017-10-15T02:15:06.293Z,948.19
2017-10-15T02:16:06.294Z,948.22
2017-10-15T02:17:06.295Z,948.17
2017-10-15T02:18:06.295Z,948.13
2017-10-15T02:19:06.298Z,948.16
2017-10-15T02:20:06.299Z,948.16
2017-10-15T02:21:06.300Z,948.15
2017-10-15T02:22:06.302Z,948.17
2017-10-15T02:23:06.301Z,948.11
2017-10-15T02:24:06.303Z,948.15
2017-10-15T02:25:06.311Z,948.12
2017-10-15T02:26:06.305Z,948.14
2017-10-15T02:27:06.307Z,948.16
2017-10-15T02:28:06.309Z,948.19
2017-10-15T02:29:06.328Z,948.12
2017-10-15T02:30:06.309Z,948.16
2017-10-15T02:31:06.311Z,948.16
2017-10-15T02:32:06.320Z,948.17
2017-10-15T02:33:06.314Z,948.12
2017-10-15T02:34:06.320Z,948.23
2017-10-15T02:35:06.317Z,948.19
2017-10-15T02:36:06.318Z,948.19
2017-10-15T02:37:06.319Z,948.18
2017-10-15T02:38:06.321Z,948.19
2017-10-15T02:39:06.319Z,948.20
2017-10-15T02:40:06.323Z,948.19
2017-10-15T02:41:06.322Z,948.20
2017-10-15T02:42:06.323Z,948.23
2017-10-15T02:43:06.324Z,948.21
2017-10-15T02:44:06.326Z,948.21
2017-10-15T02:45:06.326Z,948.20
2017-10-15T02:46:06.328Z,948.22
2017-10-15T02:47:06.327Z,948.23
2017-10-15T02:48:06.330Z,948.18
2017-10-15T02:49:06.330Z,948.21
2017-10-15T02:50:06.332Z,948.20
2017-10-15T02:51:06.332Z,948.18
2017-10-15T02:52:06.335Z,948.17
2017-10-15T02:53:06.338Z,948.21
2017-10-15T02:54:06.334Z,948.22
2017-10-15T02:55:06.335Z,948.20
2017-10-15T02:56:06.338Z,948.22
2017-10-15T02:57:06.341Z,948.20
2017-10-15T02:58:06.338Z,948.24
2017-10-15T02:59:06.337Z,948.27
2017-10-15T03:00:06.341Z,948.26
2017-10-15T03:01:06.340Z,948.25
2017-10-15T03:02:06.344Z,948.27
2017-10-15T03:03:06.346Z,948.23
2017-10-15T03:04:06.344Z,948.26
2017-10-15T03:05:06.344Z,948.28
2017-10-15T03:06:06.345Z,948.28
2017-10-15T03:07:06.347Z,948.25
2017-10-15T03:08:06.348Z,948.27
2017-10-15T03:09:06.347Z,948.27
2017-10-15T03:10:06.348Z,948.27
2017-10-15T03:11:06.349Z,948.25
2017-10-15T03:12:06.351Z,948.26
2017-10-15T03:13:06.351Z,948.26
2017-10-15T03:14:06.352Z,948.31
2017-10-15T03:15:06.352Z,948.24
2017-10-15T03:16:06.353Z,948.26
2017-10-15T03:17:06.353Z,948.26
2017-10-15T03:18:06.353Z,948.24
2017-10-15T03:19:06.355Z,948.27
2017-10-15T03:20:06.356Z,948.24
2017-10-15T03:21:06.357Z,948.24
2017-10-15T03:22:06.365Z,948.26
2017-10-15T03:23:06.357Z,948.22
2017-10-15T03:24:06.358Z,948.27
2017-10-15T03:25:06.359Z,948.27
2017-10-15T03:26:06.359Z,948.27
2017-10-15T03:27:06.360Z,948.26
2017-10-15T03:28:06.360Z,948.28
2017-10-15T03:29:06.361Z,948.24
2017-10-15T03:30:06.362Z,948.29
2017-10-15T03:31:06.368Z,948.28
2017-10-15T03:32:06.363Z,948.27
2017-10-15T03:33:06.366Z,948.27
2017-10-15T03:34:06.364Z,948.30
2017-10-15T03:35:06.377Z,948.31
2017-10-15T03:36:06.366Z,948.30
2017-10-15T03:37:06.366Z,948.31
2017-10-15T03:38:06.367Z,948.32
2017-10-15T03:39:06.366Z,948.28
2017-10-15T03:40:06.368Z,948.28
2017-10-15T03:41:06.369Z,948.28
2017-10-15T03:42:06.368Z,948.30
2017-10-15T03:43:06.368Z,948.30
2017-10-15T03:44:06.369Z,948.30
2017-10-15T03:45:06.371Z,948.30
2017-10-15T03:46:06.370Z,948.30
2017-10-15T03:47:06.372Z,948.32
2017-10-15T03:48:06.371Z,948.34
2017-10-15T03:49:06.372Z,948.34
2017-10-15T03:50:06.373Z,948.38
2017-10-15T03:51:06.373Z,948.36
2017-10-15T03:52:06.375Z,948.35
2017-10-15T03:53:06.376Z,948.37
2017-10-15T03:54:06.375Z,948.36
2017-10-15T03:55:06.381Z,948.41
2017-10-15T03:56:06.378Z,948.40
2017-10-15T03:57:06.378Z,948.38
2017-10-15T03:58:06.377Z,948.39
2017-10-15T03:59:06.378Z,948.40
2017-10-15T04:00:06.379Z,948.36
2017-10-15T04:01:06.381Z,948.36
2017-10-15T04:02:06.380Z,948.37
2017-10-15T04:03:06.380Z,948.36
2017-10-15T04:04:06.382Z,948.38
2017-10-15T04:05:06.382Z,948.31
2017-10-15T04:06:06.382Z,948.35
2017-10-15T04:07:06.385Z,948.33
2017-10-15T04:08:06.387Z,948.32
2017-10-15T04:09:06.385Z,948.34
2017-10-15T04:10:06.385Z,948.34
2017-10-15T04:11:06.385Z,948.35
2017-10-15T04:12:06.392Z,948.34
2017-10-15T04:13:06.387Z,948.35
2017-10-15T04:14:06.387Z,948.38
2017-10-15T04:15:06.387Z,948.37
2017-10-15T04:16:06.390Z,948.40
2017-10-15T04:17:06.391Z,948.41
2017-10-15T04:18:06.389Z,948.38
2017-10-15T04:19:06.394Z,948.41
2017-10-15T04:20:06.392Z,948.39
2017-10-15T04:21:06.392Z,948.39
2017-10-15T04:22:06.392Z,948.43
2017-10-15T04:23:06.392Z,948.43
2017-10-15T04:24:06.393Z,948.39
2017-10-15T04:25:06.393Z,948.43
2017-10-15T04:26:06.393Z,948.37
2017-10-15T04:27:06.395Z,948.40
2017-10-15T04:28:06.394Z,948.41
2017-10-15T04:29:06.397Z,948.42
2017-10-15T04:30:06.411Z,948.38
2017-10-15T04:31:06.397Z,948.38
2017-10-15T04:32:06.398Z,948.41
2017-10-15T04:33:06.398Z,948.36
2017-10-15T04:34:06.398Z,948.35
2017-10-15T04:35:06.410Z,948.36
2017-10-15T04:36:06.400Z,948.35
2017-10-15T04:37:06.407Z,948.33
2017-10-15T04:38:06.401Z,948.32
2017-10-15T04:39:06.400Z,948.34
2017-10-15T04:40:06.403Z,948.31
2017-10-15T04:41:06.402Z,948.32
2017-10-15T04:42:06.403Z,948.35
2017-10-15T04:43:06.403Z,948.33
2017-10-15T04:44:06.404Z,948.32
2017-10-15T04:45:06.407Z,948.30
2017-10-15T04:46:06.405Z,948.33
2017-10-15T04:47:06.405Z,948.27
2017-10-15T04:48:06.407Z,948.31
2017-10-15T04:49:06.406Z,948.29
2017-10-15T04:50:06.405Z,948.29
2017-10-15T04:51:06.406Z,948.30
2017-10-15T04:52:06.411Z,948.30
2017-10-15T04:53:06.407Z,948.30
2017-10-15T04:54:06.408Z,948.34
2017-10-15T04:55:06.409Z,948.28
2017-10-15T04:56:06.408Z,948.30
2017-10-15T04:57:06.409Z,948.28
2017-10-15T04:58:06.408Z,948.30
2017-10-15T04:59:06.408Z,948.29
2017-10-15T05:00:06.410Z,948.26
2017-10-15T05:01:06.410Z,948.29
2017-10-15T05:02:06.410Z,948.31
2017-10-15T05:03:06.410Z,948.27
2017-10-15T05:04:06.410Z,948.27
2017-10-15T05:05:06.411Z,948.28
2017-10-15T05:06:06.412Z,948.27
2017-10-15T05:07:06.411Z,948.24
2017-10-15T05:08:06.416Z,948.28
2017-10-15T05:09:06.413Z,948.27
2017-10-15T05:10:06.412Z,948.26
2017-10-15T05:11:06.413Z,948.25
2017-10-15T05:12:06.412Z,948.26
2017-10-15T05:13:06.414Z,948.23
2017-10-15T05:14:06.414Z,948.24
2017-10-15T05:15:06.414Z,948.22
2017-10-15T05:16:06.414Z,948.20
2017-10-15T05:17:06.415Z,948.20
2017-10-15T05:18:06.414Z,948.22
2017-10-15T05:19:06.415Z,948.19
2017-10-15T05:20:06.421Z,948.18
2017-10-15T05:21:06.414Z,948.16
2017-10-15T05:22:06.418Z,948.17
2017-10-15T05:23:06.415Z,948.19
2017-10-15T05:24:06.415Z,948.16
2017-10-15T05:25:06.415Z,948.14
2017-10-15T05:26:06.420Z,948.17
2017-10-15T05:27:06.417Z,948.11
2017-10-15T05:28:06.416Z,948.11
2017-10-15T05:29:06.417Z,948.12
2017-10-15T05:30:06.421Z,948.10
2017-10-15T05:31:06.417Z,948.10
2017-10-15T05:32:06.418Z,948.11
2017-10-15T05:33:06.430Z,948.06
2017-10-15T05:34:06.417Z,948.07
2017-10-15T05:35:06.417Z,948.09
2017-10-15T05:36:06.417Z,948.04
2017-10-15T05:37:06.417Z,948.06
2017-10-15T05:38:06.418Z,948.06
2017-10-15T05:39:06.418Z,948.05
2017-10-15T05:40:06.419Z,948.07
2017-10-15T05:41:06.417Z,948.05
2017-10-15T05:42:06.418Z,948.03
2017-10-15T05:43:06.420Z,948.04
2017-10-15T05:44:06.419Z,948.02
2017-10-15T05:45:06.420Z,948.05
2017-10-15T05:46:06.419Z,948.04
2017-10-15T05:47:06.419Z,948.05
2017-10-15T05:48:06.420Z,948.04
2017-10-15T05:49:06.420Z,948.01
2017-10-15T05:50:06.419Z,948.05
2017-10-15T05:51:06.420Z,948.10
2017-10-15T05:52:06.420Z,948.02
2017-10-15T05:53:06.420Z,948.08
2017-10-15T05:54:06.420Z,948.03
2017-10-15T05:55:06.419Z,948.04
2017-10-15T05:56:06.421Z,948.08
2017-10-15T05:57:06.421Z,948.04
2017-10-15T05:58:06.420Z,948.04
2017-10-15T05:59:06.424Z,948.06
2017-10-15T06:00:06.422Z,948.05
2017-10-15T06:01:06.422Z,948.05
2017-10-15T06:02:06.422Z,948.05
2017-10-15T06:03:06.421Z,948.07
2017-10-15T06:04:06.423Z,948.07
2017-10-15T06:05:06.422Z,948.09
2017-10-15T06:06:06.423Z,948.11
2017-10-15T06:07:06.432Z,948.11
2017-10-15T06:08:06.425Z,948.08
2017-10-15T06:09:06.426Z,948.12
2017-10-15T06:10:06.423Z,948.11
2017-10-15T06:11:06.423Z,948.08
2017-10-15T06:12:06.424Z,948.06
2017-10-15T06:13:06.425Z,948.11
2017-10-15T06:14:06.424Z,948.14
2017-10-15T06:15:06.424Z,948.13
2017-10-15T06:16:06.425Z,948.15
2017-10-15T06:17:06.426Z,948.11
2017-10-15T06:18:06.426Z,948.08
2017-10-15T06:19:06.428Z,948.11
2017-10-15T06:20:06.427Z,948.13
2017-10-15T06:21:06.429Z,948.15
2017-10-15T06:22:06.427Z,948.12
2017-10-15T06:23:06.429Z,948.16
2017-10-15T06:24:06.431Z,948.14
2017-10-15T06:25:06.429Z,948.13
2017-10-15T06:26:06.428Z,948.10
2017-10-15T06:27:06.428Z,948.16
2017-10-15T06:28:06.429Z,948.10
2017-10-15T06:29:06.431Z,948.10
2017-10-15T06:30:06.429Z,948.04
2017-10-15T06:31:06.430Z,948.10
2017-10-15T06:32:06.431Z,948.10
2017-10-15T06:33:06.434Z,948.08
2017-10-15T06:34:06.433Z,948.09
2017-10-15T06:35:06.431Z,948.09
2017-10-15T06:36:06.432Z,948.10
2017-10-15T06:37:06.432Z,948.11
2017-10-15T06:38:06.433Z,948.11
2017-10-15T06:39:06.433Z,948.10
2017-10-15T06:40:06.434Z,948.09
2017-10-15T06:41:06.436Z,948.09
2017-10-15T06:42:06.435Z,948.08
2017-10-15T06:43:06.440Z,948.08
2017-10-15T06:44:06.436Z,948.03
2017-10-15T06:45:06.436Z,948.07
2017-10-15T06:46:06.436Z,948.08
2017-10-15T06:47:06.437Z,948.07
2017-10-15T06:48:06.440Z,948.08
2017-10-15T06:49:06.438Z,948.08
2017-10-15T06:50:06.439Z,948.05
2017-10-15T06:51:06.441Z,948.06
2017-10-15T06:52:06.502Z,948.05
2017-10-15T06:53:06.443Z,948.05
2017-10-15T06:54:06.442Z,948.10
2017-10-15T06:55:06.445Z,948.08
2017-10-15T06:56:06.444Z,948.10
2017-10-15T06:57:06.445Z,948.11
2017-10-15T06:58:06.446Z,948.21
2017-10-15T06:59:06.444Z,948.29
2017-10-15T07:00:06.447Z,948.35
2017-10-15T07:01:06.449Z,948.42
2017-10-15T07:02:06.449Z,948.51
2017-10-15T07:03:06.452Z,948.49
2017-10-15T07:04:06.458Z,948.51
2017-10-15T07:05:06.460Z,948.50
2017-10-15T07:06:06.464Z,948.62
2017-10-15T07:07:06.473Z,948.53
2017-10-15T07:08:06.477Z,948.48
2017-10-15T07:09:06.483Z,948.41
2017-10-15T07:10:06.489Z,948.45
2017-10-15T07:11:06.497Z,948.45
2017-10-15T07:12:06.505Z,948.44
2017-10-15T07:13:06.513Z,948.51
2017-10-15T07:14:06.518Z,948.58
2017-10-15T07:15:06.527Z,948.50
2017-10-15T07:16:06.534Z,948.48
2017-10-15T07:17:06.543Z,948.49
2017-10-15T07:18:06.551Z,948.47
2017-10-15T07:19:06.556Z,948.54
2017-10-15T07:20:06.564Z,948.50
2017-10-15T07:21:06.581Z,948.48
2017-10-15T07:22:06.575Z,948.51
2017-10-15T07:23:06.582Z,948.52
2017-10-15T07:24:06.589Z,948.50
2017-10-15T07:25:06.596Z,948.46
2017-10-15T07:26:06.618Z,948.53
2017-10-15T07:27:06.605Z,948.52
2017-10-15T07:28:06.611Z,948.51
2017-10-15T07:29:06.620Z,948.50
2017-10-15T07:30:06.621Z,948.56
2017-10-15T07:31:06.628Z,948.52
2017-10-15T07:32:06.632Z,948.59
2017-10-15T07:33:06.638Z,948.57
2017-10-15T07:34:06.642Z,948.59
2017-10-15T07:35:06.647Z,948.56
2017-10-15T07:36:06.654Z,948.58
2017-10-15T07:37:06.658Z,948.63
2017-10-15T07:38:06.669Z,948.62
2017-10-15T07:39:06.670Z,948.61
2017-10-15T07:40:06.674Z,948.57
2017-10-15T07:41:06.680Z,948.64
2017-10-15T07:42:06.686Z,948.62
2017-10-15T07:43:06.692Z,948.63
2017-10-15T07:44:06.698Z,948.62
2017-10-15T07:45:06.703Z,948.64
2017-10-15T07:46:06.708Z,948.70
2017-10-15T07:47:06.713Z,948.68
2017-10-15T07:48:06.721Z,948.66
2017-10-15T07:49:06.728Z,948.70
2017-10-15T07:50:06.732Z,948.66
2017-10-15T07:51:06.739Z,948.69
2017-10-15T07:52:06.745Z,948.70
2017-10-15T07:53:06.752Z,948.71
2017-10-15T07:54:06.758Z,948.76
2017-10-15T07:55:06.764Z,948.79
2017-10-15T07:56:06.771Z,948.83
2017-10-15T07:57:06.777Z,948.88
2017-10-15T07:58:06.784Z,948.87
2017-10-15T07:59:06.791Z,948.91
2017-10-15T08:00:06.798Z,948.84
2017-10-15T08:01:06.807Z,948.93
2017-10-15T08:02:06.814Z,948.92
2017-10-15T08:03:06.823Z,948.93
2017-10-15T08:04:06.834Z,948.89
2017-10-15T08:05:06.843Z,948.87
2017-10-15T08:06:06.852Z,948.96
2017-10-15T08:07:06.861Z,948.95
2017-10-15T08:08:06.872Z,948.93
2017-10-15T08:09:06.882Z,948.90
2017-10-15T08:10:06.890Z,948.92
2017-10-15T08:11:06.900Z,948.85
2017-10-15T08:12:06.913Z,948.82
2017-10-15T08:13:06.920Z,948.83
2017-10-15T08:14:06.929Z,948.84
2017-10-15T08:15:06.938Z,948.81
2017-10-15T08:16:06.945Z,948.82
2017-10-15T08:17:06.961Z,948.82
2017-10-15T08:18:06.963Z,948.78
2017-10-15T08:19:06.970Z,948.77
2017-10-15T08:20:06.979Z,948.80
2017-10-15T08:21:06.993Z,948.83
2017-10-15T08:22:06.994Z,948.83
2017-10-15T08:23:07.001Z,948.83
2017-10-15T08:24:07.010Z,948.83
2017-10-15T08:25:07.019Z,948.81
2017-10-15T08:26:07.025Z,948.80
2017-10-15T08:27:07.035Z,948.86
2017-10-15T08:28:07.043Z,948.84
2017-10-15T08:29:07.053Z,948.85
2017-10-15T08:30:07.061Z,948.84
2017-10-15T08:31:07.072Z,948.91
2017-10-15T08:32:07.081Z,948.91
2017-10-15T08:33:07.092Z,948.88
2017-10-15T08:34:07.103Z,948.89
2017-10-15T08:35:07.114Z,948.89
2017-10-15T08:36:07.125Z,948.88
2017-10-15T08:37:07.139Z,948.92
2017-10-15T08:38:07.149Z,948.93
2017-10-15T08:39:07.161Z,948.89
2017-10-15T08:40:07.178Z,948.90
2017-10-15T08:41:07.185Z,948.94
2017-10-15T08:42:07.219Z,948.90
2017-10-15T08:43:07.208Z,948.92
2017-10-15T08:44:07.221Z,948.92
2017-10-15T08:45:07.231Z,948.95
2017-10-15T08:46:07.251Z,948.95
2017-10-15T08:47:07.255Z,948.98
2017-10-15T08:48:07.266Z,948.94
2017-10-15T08:49:07.278Z,948.99
2017-10-15T08:50:07.290Z,948.96
2017-10-15T08:51:07.301Z,948.94
2017-10-15T08:52:07.312Z,948.91
2017-10-15T08:53:07.325Z,948.92
2017-10-15T08:54:07.335Z,948.94
2017-10-15T08:55:07.352Z,948.90
2017-10-15T08:56:07.357Z,948.87
2017-10-15T08:57:07.368Z,948.91
2017-10-15T08:58:07.376Z,948.89
2017-10-15T08:59:07.386Z,948.86
2017-10-15T09:00:07.396Z,948.87
2017-10-15T09:01:07.406Z,948.92
2017-10-15T09:02:07.416Z,948.92
2017-10-15T09:03:07.434Z,948.90
2017-10-15T09:04:07.456Z,948.91
2017-10-15T09:05:07.452Z,948.95
2017-10-15T09:06:07.452Z,948.91
2017-10-15T09:07:07.463Z,948.97
2017-10-15T09:08:07.492Z,948.93
2017-10-15T09:09:07.483Z,949.02
2017-10-15T09:10:07.493Z,949.02
2017-10-15T09:11:07.503Z,949.02
2017-10-15T09:12:07.515Z,949.04
2017-10-15T09:13:07.526Z,949.05
2017-10-15T09:14:07.542Z,949.02
2017-10-15T09:15:07.549Z,949.03
2017-10-15T09:16:07.562Z,949.00
2017-10-15T09:17:07.575Z,949.03
2017-10-15T09:18:07.587Z,949.04
2017-10-15T09:19:07.599Z,949.02
2017-10-15T09:20:07.612Z,949.00
2017-10-15T09:21:07.626Z,948.98
2017-10-15T09:22:07.637Z,948.97
2017-10-15T09:23:07.649Z,948.97
2017-10-15T09:24:07.664Z,948.99
2017-10-15T09:25:07.684Z,949.04
2017-10-15T09:26:07.689Z,949.02
2017-10-15T09:27:07.702Z,948.91
2017-10-15T09:28:07.711Z,948.92
2017-10-15T09:29:07.724Z,948.93
2017-10-15T09:30:07.738Z,948.91
2017-10-15T09:31:07.745Z,948.87
2017-10-15T09:32:07.763Z,948.89
2017-10-15T09:33:07.769Z,948.89
2017-10-15T09:34:07.779Z,948.92
2017-10-15T09:35:07.794Z,948.95
2017-10-15T09:36:07.803Z,948.96
2017-10-15T09:37:07.829Z,948.95
2017-10-15T09:38:07.822Z,948.93
2017-10-15T09:39:07.836Z,948.94
2017-10-15T09:40:07.843Z,948.90
2017-10-15T09:41:07.854Z,948.91
2017-10-15T09:42:07.866Z,948.88
2017-10-15T09:43:07.875Z,948.94
2017-10-15T09:44:07.913Z,948.94
2017-10-15T09:45:07.897Z,948.92
2017-10-15T09:46:07.906Z,948.96
2017-10-15T09:47:07.918Z,948.93
2017-10-15T09:48:07.929Z,948.91
2017-10-15T09:49:07.940Z,948.93
2017-10-15T09:50:07.950Z,948.91
2017-10-15T09:51:07.960Z,948.89
2017-10-15T09:52:07.972Z,948.91
2017-10-15T09:53:07.996Z,948.87
2017-10-15T09:54:07.997Z,948.89
2017-10-15T09:55:08.005Z,948.93
2017-10-15T09:56:08.016Z,948.90
2017-10-15T09:57:08.028Z,948.88
2017-10-15T09:58:08.061Z,948.91
2017-10-15T09:59:08.056Z,948.95
2017-10-15T10:00:08.067Z,948.87
2017-10-15T10:01:08.078Z,948.92
2017-10-15T10:02:08.092Z,948.90
2017-10-15T10:03:08.105Z,948.97
2017-10-15T10:04:08.120Z,948.89
2017-10-15T10:05:08.208Z,948.91
2017-10-15T10:06:08.147Z,948.91
2017-10-15T10:07:08.161Z,948.89
2017-10-15T10:08:08.176Z,948.91
2017-10-15T10:09:08.192Z,948.92
2017-10-15T10:10:08.211Z,948.96
2017-10-15T10:11:08.222Z,948.98
2017-10-15T10:12:08.237Z,948.94
2017-10-15T10:13:08.277Z,948.95
2017-10-15T10:14:08.269Z,948.99
2017-10-15T10:15:08.286Z,948.88
2017-10-15T10:16:08.300Z,948.92
2017-10-15T10:17:08.319Z,948.92
2017-10-15T10:18:08.334Z,948.93
2017-10-15T10:19:08.348Z,948.92
2017-10-15T10:20:08.366Z,948.93
2017-10-15T10:21:08.384Z,948.91
2017-10-15T10:22:08.420Z,948.91
2017-10-15T10:23:08.415Z,948.91
2017-10-15T10:24:08.432Z,948.89
2017-10-15T10:25:08.448Z,948.90
2017-10-15T10:26:08.464Z,948.86
2017-10-15T10:27:08.481Z,948.86
2017-10-15T10:28:08.499Z,948.86
2017-10-15T10:29:08.515Z,948.89
2017-10-15T10:30:08.532Z,948.89
2017-10-15T10:31:08.549Z,948.86
2017-10-15T10:32:08.567Z,948.86
2017-10-15T10:33:08.584Z,948.87
2017-10-15T10:34:08.598Z,948.86
2017-10-15T10:35:08.617Z,948.87
2017-10-15T10:36:08.634Z,948.88
2017-10-15T10:37:08.651Z,948.82
2017-10-15T10:38:08.668Z,948.85
2017-10-15T10:39:08.685Z,948.80
2017-10-15T10:40:08.701Z,948.83
2017-10-15T10:41:08.719Z,948.76
2017-10-15T10:42:08.735Z,948.82
2017-10-15T10:43:08.752Z,948.82
2017-10-15T10:44:08.768Z,948.81
2017-10-15T10:45:08.785Z,948.82
2017-10-15T10:46:08.799Z,948.79
2017-10-15T10:47:08.817Z,948.74
2017-10-15T10:48:08.833Z,948.75
2017-10-15T10:49:08.850Z,948.78
2017-10-15T10:50:08.865Z,948.76
2017-10-15T10:51:08.882Z,948.74
2017-10-15T10:52:08.897Z,948.75
2017-10-15T10:53:08.920Z,948.72
2017-10-15T10:54:08.928Z,948.74
2017-10-15T10:55:08.944Z,948.72
2017-10-15T10:56:08.960Z,948.73
2017-10-15T10:57:08.977Z,948.72
2017-10-15T10:58:08.991Z,948.72
2017-10-15T10:59:09.006Z,948.69
2017-10-15T11:00:09.021Z,948.65
2017-10-15T11:01:09.038Z,948.66
2017-10-15T11:02:09.052Z,948.63
2017-10-15T11:03:09.066Z,948.64
2017-10-15T11:04:09.083Z,948.63
2017-10-15T11:05:09.097Z,948.60
2017-10-15T11:06:09.111Z,948.62
2017-10-15T11:07:09.127Z,948.61
2017-10-15T11:08:09.141Z,948.62
2017-10-15T11:09:09.157Z,948.60
2017-10-15T11:10:09.169Z,948.58
2017-10-15T11:11:09.184Z,948.58
2017-10-15T11:12:09.199Z,948.58
2017-10-15T11:13:09.212Z,948.57
2017-10-15T11:14:09.227Z,948.56
2017-10-15T11:15:09.245Z,948.55
2017-10-15T11:16:09.256Z,948.54
2017-10-15T11:17:09.271Z,948.57
2017-10-15T11:18:09.305Z,948.54
2017-10-15T11:19:09.298Z,948.56
2017-10-15T11:20:09.313Z,948.56
2017-10-15T11:21:09.328Z,948.51
2017-10-15T11:22:09.341Z,948.53
2017-10-15T11:23:09.356Z,948.50
2017-10-15T11:24:09.377Z,948.51
2017-10-15T11:25:09.384Z,948.56
2017-10-15T11:26:09.396Z,948.54
2017-10-15T11:27:09.411Z,948.51
2017-10-15T11:28:09.424Z,948.51
2017-10-15T11:29:09.438Z,948.53
2017-10-15T11:30:09.453Z,948.52
2017-10-15T11:31:09.465Z,948.48
2017-10-15T11:32:09.479Z,948.49
2017-10-15T11:33:09.495Z,948.47
2017-10-15T11:34:09.511Z,948.45
2017-10-15T11:35:09.520Z,948.47
2017-10-15T11:36:09.543Z,948.46
2017-10-15T11:37:09.573Z,948.45
2017-10-15T11:38:09.567Z,948.44
2017-10-15T11:39:09.574Z,948.45
2017-10-15T11:40:09.587Z,948.44
2017-10-15T11:41:09.602Z,948.44
2017-10-15T11:42:09.615Z,948.43
2017-10-15T11:43:09.628Z,948.42
2017-10-15T11:44:09.661Z,948.43
2017-10-15T11:45:09.661Z,948.39
2017-10-15T11:46:09.668Z,948.37
2017-10-15T11:47:09.682Z,948.38
2017-10-15T11:48:09.697Z,948.36
2017-10-15T11:49:09.710Z,948.37
2017-10-15T11:50:09.723Z,948.33
2017-10-15T11:51:09.749Z,948.37
2017-10-15T11:52:09.776Z,948.35
2017-10-15T11:53:09.795Z,948.38
2017-10-15T11:54:09.777Z,948.38
2017-10-15T11:55:09.792Z,948.39
2017-10-15T11:56:09.806Z,948.35
2017-10-15T11:57:09.818Z,948.32
2017-10-15T11:58:09.832Z,948.32
2017-10-15T11:59:09.847Z,948.32
2017-10-15T12:00:09.868Z,948.30
2017-10-15T12:01:09.886Z,948.28
2017-10-15T12:02:09.888Z,948.29
2017-10-15T12:03:09.902Z,948.30
2017-10-15T12:04:09.916Z,948.27
2017-10-15T12:05:09.930Z,948.29
2017-10-15T12:06:09.972Z,948.25
2017-10-15T12:07:09.985Z,948.25
2017-10-15T12:08:09.976Z,948.23
2017-10-15T12:09:09.986Z,948.25
2017-10-15T12:10:10.007Z,948.23
2017-10-15T12:11:10.019Z,948.29
2017-10-15T12:12:10.029Z,948.25
2017-10-15T12:13:10.044Z,948.19
2017-10-15T12:14:10.057Z,948.18
2017-10-15T12:15:10.072Z,948.15
2017-10-15T12:16:10.086Z,948.17
2017-10-15T12:17:10.101Z,948.15
2017-10-15T12:18:10.114Z,948.16
2017-10-15T12:19:10.133Z,948.14
2017-10-15T12:20:10.145Z,948.14
2017-10-15T12:21:10.158Z,948.16
2017-10-15T12:22:10.173Z,948.12
2017-10-15T12:23:10.188Z,948.09
2017-10-15T12:24:10.204Z,948.09
2017-10-15T12:25:10.219Z,948.06
2017-10-15T12:26:10.232Z,948.05
2017-10-15T12:27:10.247Z,948.08
2017-10-15T12:28:10.263Z,948.08